Latest Weather Observations for Hillarys Point Boat Harbour

IDW60901

Issued at 7:01 pm WST Tuesday 30 August 2016 (issued every 10 minutes, with the page automatically refreshed every 10 minutes)

About weather observations | Map of Perth area stations | Latest observations for Perth area | Other Formats
Station Details ID: 009265 Name: HILLARYS BOAT HARBOUR NTC AWS Lat: -31.83 Lon: 115.74 Height: 0.0 m
Data from the previous 72 hours. | See also: Recent months for locations in Western Australia
Date/Time
WST
Temp
°C
App
Temp
°C
Dew
Point
°C
Rel
Hum
%
Delta-T
°C
Wind Press
QNH
hPa
Press
MSL
hPa
Rain since
9am
mm
Dir  Spd
km/h
Gust
km/h
Spd
kts
Gust
kts
30/07:00pm 15.7 - - - - CALM 0 2 0 1 1014.5 1014.5 -
30/06:30pm 15.8 - - - - W 2 4 1 2 1014.4 1014.4 -
30/06:00pm 16.1 - - - - N 4 6 2 3 1014.3 1014.3 -
30/05:30pm 16.1 - - - - N 2 6 1 3 1014.3 1014.3 -
30/05:00pm 16.1 - - - - NNW 2 4 1 2 1014.3 1014.3 -
30/04:30pm 16.1 - - - - NW 4 7 2 4 1014.4 1014.4 -
30/04:00pm 16.2 - - - - NW 6 9 3 5 1014.5 1014.5 -
30/03:30pm 16.2 - - - - NNW 9 15 5 8 1014.6 1014.6 -
30/03:00pm 16.3 - - - - NNW 9 17 5 9 1014.9 1014.9 -
30/02:30pm 16.3 - - - - NNW 9 15 5 8 1015.0 1015.0 -
30/02:00pm 16.4 - - - - NNW 9 19 5 10 1015.1 1015.1 -
30/01:30pm 16.6 - - - - NNW 11 19 6 10 1015.3 1015.3 -
30/01:00pm 16.0 - - - - NNW 9 17 5 9 1015.6 1015.6 -
30/12:30pm 16.0 - - - - NNW 9 17 5 9 1016.0 1016.0 -
30/12:00pm 15.5 - - - - NNW 9 15 5 8 1016.4 1016.4 -
30/11:30am 15.9 - - - - N 7 15 4 8 1016.7 1016.7 -
30/11:00am 14.9 - - - - NE 11 17 6 9 1017.0 1017.0 -
30/10:30am 13.9 - - - - NNE 11 22 6 12 1017.2 1017.2 -
30/10:00am 13.2 - - - - NE 9 17 5 9 1017.4 1017.4 -
30/09:30am 12.4 - - - - NNE 9 19 5 10 1017.6 1017.6 -
30/09:00am 11.5 - - - - NNE 13 22 7 12 1017.7 1017.7 -
30/08:30am 10.3 - - - - NNE 9 15 5 8 1017.6 1017.6 -
30/08:00am 9.7 - - - - NNE 7 15 4 8 1017.6 1017.6 -
30/07:30am 9.0 - - - - NNE 9 15 5 8 1017.4 1017.4 -
30/07:00am 8.3 - - - - ENE 13 17 7 9 1017.1 1017.1 -
30/06:30am 8.4 - - - - ENE 11 17 6 9 1016.9 1016.9 -
30/06:00am 8.5 - - - - ENE 13 17 7 9 1016.6 1016.6 -
30/05:30am 8.7 - - - - ENE 11 17 6 9 1016.6 1016.6 -
30/05:00am 8.8 - - - - ENE 11 17 6 9 1016.4 1016.4 -
30/04:30am 9.0 - - - - ENE 11 15 6 8 1016.0 1016.0 -
30/04:00am 8.9 - - - - ENE 11 15 6 8 1015.9 1015.9 -
30/03:30am 8.9 - - - - ENE 11 17 6 9 1016.1 1016.1 -
30/03:00am 9.9 - - - - ENE 9 11 5 6 1016.1 1016.1 -
30/02:30am 9.8 - - - - ENE 7 13 4 7 1016.3 1016.3 -
30/02:00am 9.9 - - - - ENE 7 11 4 6 1016.7 1016.7 -
30/01:30am 10.2 - - - - ENE 7 11 4 6 1016.8 1016.8 -
30/01:00am 10.5 - - - - ENE 7 9 4 5 1017.0 1017.0 -
30/12:30am 10.9 - - - - ENE 6 9 3 5 1017.1 1017.1 -
30/12:00am 11.6 - - - - ENE 4 7 2 4 1017.1 1017.1 -
 
Date/Time
WST
Temp
°C
App
Temp
°C
Dew
Point
°C
Rel
Hum
%
Delta-T
°C
Wind Press
QNH
hPa
Press
MSL
hPa
Rain since
9am
mm
Dir  Spd
km/h
Gust
km/h
Spd
kts
Gust
kts
29/11:30pm 12.1 - - - - NE 4 9 2 5 1017.2 1017.2 -
29/11:00pm 13.0 - - - - ESE 2 6 1 3 1017.2 1017.2 -
29/10:30pm 13.3 - - - - SSE 2 7 1 4 1017.4 1017.4 -
29/10:00pm 13.6 - - - - SSE 6 11 3 6 1017.4 1017.4 -
29/09:30pm 13.8 - - - - SSE 7 13 4 7 1017.2 1017.2 -
29/09:00pm 14.1 - - - - S 6 13 3 7 1017.4 1017.4 -
29/08:30pm 14.3 - - - - SW 13 24 7 13 1017.1 1017.1 -
29/08:00pm 14.2 - - - - SSW 9 20 5 11 1017.0 1017.0 -
29/07:30pm 14.1 - - - - SW 13 24 7 13 1016.8 1016.8 -
29/07:00pm 14.1 - - - - SSW 9 17 5 9 1016.5 1016.5 -
29/06:30pm 14.1 - - - - SSW 11 19 6 10 1016.4 1016.4 -
29/06:00pm 14.2 - - - - SSW 9 19 5 10 1016.1 1016.1 -
29/05:30pm 14.4 - - - - SSW 6 15 3 8 1015.9 1015.9 -
29/05:00pm 14.7 - - - - SSW 11 20 6 11 1015.6 1015.6 -
29/04:30pm 14.8 - - - - SSW 11 19 6 10 1015.5 1015.5 -
29/04:00pm 14.9 - - - - SSW 11 20 6 11 1015.4 1015.4 -
29/03:30pm 15.0 - - - - SSW 13 24 7 13 1015.3 1015.3 -
29/03:00pm 15.2 - - - - SSW 9 17 5 9 1015.4 1015.4 -
29/02:30pm 15.1 - - - - SSW 11 22 6 12 1015.3 1015.3 -
29/02:00pm 15.1 - - - - SSW 11 20 6 11 1015.1 1015.1 -
29/01:30pm 14.9 - - - - SSW 11 19 6 10 1015.3 1015.3 -
29/01:00pm 14.7 - - - - SSW 6 15 3 8 1015.4 1015.4 -
29/12:30pm 14.3 - - - - SSW 9 17 5 9 1015.8 1015.8 -
29/12:00pm 14.5 - - - - SSW 6 11 3 6 1016.1 1016.1 -
29/11:30am 14.3 - - - - SSW 6 13 3 7 1016.5 1016.5 -
29/11:00am 14.5 - - - - SSW 6 13 3 7 1016.8 1016.8 -
29/10:30am 13.7 - - - - SSW 7 15 4 8 1016.8 1016.8 -
29/10:00am 13.4 - - - - SSW 7 17 4 9 1016.7 1016.7 -
29/09:30am 13.6 - - - - S 4 13 2 7 1016.6 1016.6 -
29/09:00am 13.2 - - - - SSE 7 19 4 10 1016.4 1016.4 -
29/08:30am 12.8 - - - - SSE 7 15 4 8 1016.2 1016.2 -
29/08:00am 12.5 - - - - SSE 6 11 3 6 1016.1 1016.1 -
29/07:30am 12.5 - - - - SSE 6 9 3 5 1015.7 1015.7 -
29/07:00am 12.3 - - - - SE 6 11 3 6 1015.4 1015.4 -
29/06:30am 12.5 - - - - SE 6 11 3 6 1015.1 1015.1 -
29/06:00am 12.8 - - - - SSE 9 17 5 9 1015.0 1015.0 -
29/05:30am 12.9 - - - - SSE 11 20 6 11 1014.7 1014.7 -
29/05:00am 12.9 - - - - SSE 9 17 5 9 1014.4 1014.4 -
29/04:30am 13.0 - - - - SSE 9 20 5 11 1014.2 1014.2 -
29/04:00am 13.2 - - - - S 9 20 5 11 1013.9 1013.9 -
29/03:30am 13.3 - - - - S 7 20 4 11 1013.7 1013.7 -
29/03:00am 13.4 - - - - S 7 22 4 12 1013.6 1013.6 -
29/02:30am 13.4 - - - - SSW 7 17 4 9 1013.7 1013.7 -
29/02:00am 13.3 - - - - S 7 17 4 9 1013.9 1013.9 -
29/01:30am 13.5 - - - - SSW 7 20 4 11 1014.0 1014.0 -
29/01:00am 13.5 - - - - SSW 9 24 5 13 1014.0 1014.0 -
29/12:30am 13.1 - - - - S 7 19 4 10 1013.8 1013.8 -
29/12:00am 13.2 - - - - S 7 19 4 10 1013.7 1013.7 -
 
Date/Time
WST
Temp
°C
App
Temp
°C
Dew
Point
°C
Rel
Hum
%
Delta-T
°C
Wind Press
QNH
hPa
Press
MSL
hPa
Rain since
9am
mm
Dir  Spd
km/h
Gust
km/h
Spd
kts
Gust
kts
28/11:30pm 13.2 - - - - SSE 9 20 5 11 1013.8 1013.8 -
28/11:00pm 13.1 - - - - SSE 9 17 5 9 1013.9 1013.9 -
28/10:30pm 13.3 - - - - SSE 9 20 5 11 1013.8 1013.8 -
28/10:00pm 13.9 - - - - S 7 26 4 14 1013.8 1013.8 -
28/09:30pm 14.0 - - - - S 7 22 4 12 1013.7 1013.7 -
28/09:00pm 14.0 - - - - SSW 9 20 5 11 1013.6 1013.6 -
28/08:30pm 14.4 - - - - SSW 11 24 6 13 1013.3 1013.3 -
28/08:00pm 14.6 - - - - SSW 13 28 7 15 1012.9 1012.9 -
28/07:30pm 14.6 - - - - SSW 15 30 8 16 1012.5 1012.5 -
28/07:00pm 14.7 - - - - SSW 15 28 8 15 1012.2 1012.2 -
28/06:30pm 14.8 - - - - SSW 17 28 9 15 1012.0 1012.0 -
28/06:00pm 14.6 - - - - SSW 20 32 11 17 1011.8 1011.8 -
28/05:30pm 14.5 - - - - SSW 20 35 11 19 1011.6 1011.6 -
28/05:00pm 14.8 - - - - SSW 17 33 9 18 1011.5 1011.5 -
28/04:30pm 14.7 - - - - SSW 20 35 11 19 1011.3 1011.3 -
28/04:00pm 14.1 - - - - SSW 15 41 8 22 1010.9 1010.9 -
28/03:30pm 14.7 - - - - SSW 19 35 10 19 1010.8 1010.8 -
28/03:00pm 14.6 - - - - SSW 19 37 10 20 1010.7 1010.7 -
28/02:30pm 14.1 - - - - SSW 17 32 9 17 1010.7 1010.7 -
28/02:00pm 13.8 - - - - SSW 13 32 7 17 1010.7 1010.7 -
28/01:30pm 14.4 - - - - SSW 19 37 10 20 1010.7 1010.7 -
28/01:00pm 14.7 - - - - SSW 15 32 8 17 1010.8 1010.8 -
28/12:30pm 14.7 - - - - SSW 15 30 8 16 1010.9 1010.9 -
28/12:00pm 14.5 - - - - SSW 15 32 8 17 1011.0 1011.0 -
28/11:30am 14.3 - - - - SSW 13 32 7 17 1011.3 1011.3 -
28/11:00am 14.5 - - - - SSW 15 33 8 18 1011.3 1011.3 -
28/10:30am 14.1 - - - - SSW 15 26 8 14 1011.2 1011.2 -
28/10:00am 14.1 - - - - SSW 11 24 6 13 1011.2 1011.2 -
28/09:30am 13.7 - - - - SSW 13 28 7 15 1011.1 1011.1 -
28/09:00am 13.9 - - - - SSW 17 32 9 17 1011.0 1011.0 -
28/08:30am 13.9 - - - - SSW 15 30 8 16 1010.6 1010.6 -
28/08:00am 13.4 - - - - SSW 17 35 9 19 1010.3 1010.3 -
28/07:30am 13.6 - - - - SSW 15 30 8 16 1009.8 1009.8 -
28/07:00am 12.9 - - - - SSW 19 37 10 20 1009.2 1009.2 -
28/06:30am 13.8 - - - - SSW 20 41 11 22 1008.8 1008.8 -
28/06:00am 13.2 - - - - SSW 26 44 14 24 1008.6 1008.6 -
28/05:49am 13.3 - - - - SSW 28 54 15 29 1008.4 1008.4 -
28/05:30am 13.4 - - - - SSW 22 43 12 23 1008.4 1008.4 -
28/05:00am 13.3 - - - - SSW 24 43 13 23 1007.9 1007.9 -
28/04:30am 13.9 - - - - SSW 20 37 11 20 1007.6 1007.6 -
28/04:00am 12.9 - - - - SSW 22 44 12 24 1007.6 1007.6 -
28/03:30am 12.8 - - - - SSW 19 37 10 20 1007.5 1007.5 -
28/03:00am 13.3 - - - - SSW 22 44 12 24 1007.3 1007.3 -
28/02:30am 13.6 - - - - SSW 24 41 13 22 1007.1 1007.1 -
28/02:05am 11.8 - - - - SW 28 50 15 27 1007.1 1007.1 -
28/02:00am 14.0 - - - - SSW 26 44 14 24 1006.8 1006.8 -
28/01:47am 13.4 - - - - SW 28 48 15 26 1006.8 1006.8 -
28/01:30am 12.4 - - - - SSW 22 39 12 21 1007.1 1007.1 -
28/01:00am 12.2 - - - - SW 24 37 13 20 1007.0 1007.0 -
28/12:32am 11.9 - - - - SW 33 54 18 29 1007.1 1007.1 -
28/12:30am 11.8 - - - - SW 35 54 19 29 1007.1 1007.1 -
28/12:03am 13.8 - - - - SW 28 54 15 29 1006.8 1006.8 -
28/12:00am 13.6 - - - - SSW 24 43 13 23 1006.8 1006.8 -
 
Date/Time
WST
Temp
°C
App
Temp
°C
Dew
Point
°C
Rel
Hum
%
Delta-T
°C
Wind Press
QNH
hPa
Press
MSL
hPa
Rain since
9am
mm
Dir  Spd
km/h
Gust
km/h
Spd
kts
Gust
kts
27/11:30pm 13.2 - - - - SW 24 43 13 23 1006.7 1006.7 -
27/11:00pm 14.2 - - - - SW 28 54 15 29 1006.6 1006.6 -
27/10:37pm 13.4 - - - - SW 28 48 15 26 1006.7 1006.7 -
27/10:30pm 13.7 - - - - SW 32 44 17 24 1006.5 1006.5 -
27/10:16pm 14.2 - - - - SW 30 48 16 26 1006.5 1006.5 -
27/10:00pm 13.7 - - - - SW 32 44 17 24 1006.6 1006.6 -
27/09:30pm 12.3 - - - - SW 28 50 15 27 1006.7 1006.7 -
27/09:06pm 14.2 - - - - SW 30 50 16 27 1006.3 1006.3 -
27/09:00pm 14.7 - - - - SW 32 50 17 27 1006.2 1006.2 -
27/08:30pm 14.5 - - - - SW 35 54 19 29 1005.9 1005.9 -
27/08:00pm 14.9 - - - - SW 35 57 19 31 1005.6 1005.6 -
27/07:35pm 14.0 - - - - WSW 39 63 21 34 1005.5 1005.5 -
27/07:30pm 14.0 - - - - WSW 41 56 22 30 1005.4 1005.4 -
27/07:08pm 14.2 - - - - WSW 35 56 19 30 1005.0 1005.0 -

Latest Capital City Observations: Canberra | Sydney | Melbourne | Brisbane | Adelaide | Perth | Hobart | Darwin

Other Formats:

Comma delimited format used in spreadsheet applications
http://www.bom.gov.au/fwo/IDW60901/IDW60901.95605.axf

JavaScript Object Notation format (JSON) in row-major order
http://www.bom.gov.au/fwo/IDW60901/IDW60901.95605.json